createdAt,value
2023-04-01T00:02:07.821Z,97053.19
2023-04-01T00:04:56.538Z,97046.63
2023-04-01T00:07:40.092Z,97042.64
2023-04-01T00:10:29.747Z,97039.99
2023-04-01T00:13:14.305Z,97043.66
2023-04-01T00:16:03.584Z,97045.26
2023-04-01T00:18:48.614Z,97039.02
2023-04-01T00:21:59.378Z,97033.17
2023-04-01T00:25:41.074Z,97023.73
2023-04-01T00:29:32.082Z,97016.21
2023-04-01T00:33:15.779Z,97009.33
2023-04-01T00:37:22.553Z,97005.38
2023-04-01T00:41:10.472Z,97017.66
2023-04-01T00:45:16.807Z,97024.83
2023-04-01T00:49:08.036Z,97022.27
2023-04-01T00:53:00.952Z,97018.98
2023-04-01T00:57:09.159Z,97017.70
2023-04-01T01:00:36.527Z,97020.27
2023-04-01T01:04:12.512Z,97015.48
2023-04-01T01:08:29.029Z,97002.71
2023-04-01T01:12:17.184Z,97001.16
2023-04-01T01:15:57.214Z,96992.58
2023-04-01T01:20:25.422Z,96988.02
2023-04-01T01:24:27.491Z,96982.08
2023-04-01T01:28:51.181Z,96979.75
2023-04-01T01:33:10.202Z,96970.54
2023-04-01T01:37:19.043Z,96960.92
2023-04-01T01:40:58.753Z,96962.66
2023-04-01T01:44:49.237Z,96965.83
2023-04-01T01:48:56.100Z,96960.16
2023-04-01T01:52:55.733Z,96955.18
2023-04-01T01:56:45.647Z,96947.05
2023-04-01T02:00:53.972Z,96945.66
2023-04-01T02:04:28.156Z,96948.03
2023-04-01T02:08:17.422Z,96943.37
2023-04-01T02:11:48.740Z,96942.43
2023-04-01T02:15:44.564Z,96938.39
2023-04-01T02:19:41.464Z,96942.55
2023-04-01T02:23:33.120Z,96939.09
2023-04-01T02:27:11.114Z,96942.40
2023-04-01T02:31:11.456Z,96947.07
2023-04-01T02:35:02.044Z,96941.15
2023-04-01T02:39:10.159Z,96939.45
2023-04-01T02:43:17.193Z,96936.27
2023-04-01T02:46:45.110Z,96927.56
2023-04-01T02:50:20.492Z,96923.79
2023-04-01T02:53:26.827Z,96927.02
2023-04-01T02:56:22.293Z,96915.27
2023-04-01T03:00:13.000Z,96914.64
2023-04-01T03:03:46.981Z,96908.04
2023-04-01T03:07:20.823Z,96907.02
2023-04-01T03:11:03.968Z,96902.45
2023-04-01T03:15:12.088Z,96894.30
2023-04-01T03:19:20.214Z,96889.45
2023-04-01T03:23:25.663Z,96888.55
2023-04-01T03:27:04.997Z,96887.01
2023-04-01T03:30:30.349Z,96886.08
2023-04-01T03:34:38.599Z,96888.84
2023-04-01T03:38:26.776Z,96885.20
2023-04-01T03:42:35.114Z,96888.31
2023-04-01T03:46:29.523Z,96886.36
2023-04-01T03:50:37.658Z,96885.45
2023-04-01T03:54:38.896Z,96884.05
2023-04-01T03:58:07.836Z,96895.10
2023-04-01T04:01:38.375Z,96892.17
2023-04-01T04:05:29.041Z,96895.90
2023-04-01T04:09:37.150Z,96901.83
2023-04-01T04:13:21.872Z,96900.12
2023-04-01T04:17:17.133Z,96902.56
2023-04-01T04:21:25.425Z,96899.41
2023-04-01T04:25:15.067Z,96896.63
2023-04-01T04:28:22.129Z,96893.77
2023-04-01T04:30:55.850Z,96893.26
2023-04-01T04:34:09.836Z,96892.73
2023-04-01T04:37:36.929Z,96891.33
2023-04-01T04:40:11.845Z,96890.29
2023-04-01T04:43:17.526Z,96889.95
2023-04-01T04:45:52.895Z,96883.94
2023-04-01T04:48:45.247Z,96882.13
2023-04-01T04:51:44.096Z,96878.33
2023-04-01T04:54:22.174Z,96877.67
2023-04-01T04:57:22.886Z,96881.61
2023-04-01T05:00:13.185Z,96874.37
2023-04-01T05:03:43.383Z,96872.11
2023-04-01T05:06:30.446Z,96870.92
2023-04-01T05:09:37.150Z,96867.30
2023-04-01T05:12:45.508Z,96863.66
2023-04-01T05:16:07.714Z,96867.56
2023-04-01T05:19:01.813Z,96876.98
2023-04-01T05:22:19.838Z,96877.99
2023-04-01T05:25:12.242Z,96887.33
2023-04-01T05:28:19.535Z,96891.42
2023-04-01T05:31:29.428Z,96896.52
2023-04-01T05:34:47.219Z,96897.26
2023-04-01T05:38:29.754Z,96897.88
2023-04-01T05:41:59.353Z,96901.16
2023-04-01T05:44:56.748Z,96895.50
2023-04-01T05:48:42.304Z,96893.11
2023-04-01T05:52:04.645Z,96899.77
2023-04-01T05:55:01.510Z,96899.27
2023-04-01T05:58:02.530Z,96902.57
2023-04-01T06:00:42.890Z,96905.04
2023-04-01T06:03:47.413Z,96908.45
2023-04-01T06:06:37.730Z,96910.27
2023-04-01T06:09:49.802Z,96909.18
2023-04-01T06:12:41.779Z,96907.99
2023-04-01T06:15:50.426Z,96903.30
2023-04-01T06:19:01.335Z,96905.05
2023-04-01T06:22:38.466Z,96906.60
2023-04-01T06:25:53.641Z,96904.69
2023-04-01T06:29:18.022Z,96903.54
2023-04-01T06:33:24.033Z,96900.92
2023-04-01T06:37:04.796Z,96905.03
2023-04-01T06:39:59.472Z,96906.04
2023-04-01T06:43:50.486Z,96910.23
2023-04-01T06:47:09.712Z,96911.88
2023-04-01T06:50:45.012Z,96907.26
2023-04-01T06:53:51.682Z,96913.06
2023-04-01T06:56:47.615Z,96910.55
2023-04-01T07:00:21.736Z,96910.00
2023-04-01T07:03:06.916Z,96907.09
2023-04-01T07:05:43.382Z,96907.42
2023-04-01T07:08:29.541Z,96903.70
2023-04-01T07:11:49.370Z,96906.73
2023-04-01T07:15:20.620Z,96904.54
2023-04-01T07:18:55.981Z,96903.41
2023-04-01T07:22:15.188Z,96903.77
2023-04-01T07:25:26.399Z,96906.58
2023-04-01T07:28:23.219Z,96908.58
2023-04-01T07:31:17.473Z,96904.17
2023-04-01T07:35:24.585Z,96907.84
2023-04-01T07:39:08.768Z,96901.36
2023-04-01T07:43:02.858Z,96895.36
2023-04-01T07:46:04.464Z,96893.98
2023-04-01T07:49:24.706Z,96890.96
2023-04-01T07:52:02.728Z,96896.59
2023-04-01T07:55:14.430Z,96896.40
2023-04-01T07:57:58.518Z,96899.63
2023-04-01T08:00:47.192Z,96901.61
2023-04-01T08:04:13.464Z,96898.20
2023-04-01T08:07:22.677Z,96898.45
2023-04-01T08:11:11.562Z,96905.77
2023-04-01T08:14:26.782Z,96908.86
2023-04-01T08:17:46.771Z,96908.58
2023-04-01T08:20:48.331Z,96904.52
2023-04-01T08:23:24.079Z,96904.86
2023-04-01T08:26:49.333Z,96909.44
2023-04-01T08:29:22.408Z,96916.09
2023-04-01T08:32:41.356Z,96916.32
2023-04-01T08:35:32.627Z,96917.92
2023-04-01T08:38:35.814Z,96917.38
2023-04-01T08:41:26.895Z,96917.28
2023-04-01T08:44:37.255Z,96916.14
2023-04-01T08:47:35.417Z,96912.31
2023-04-01T08:51:15.390Z,96908.66
2023-04-01T08:54:41.327Z,96910.05
2023-04-01T08:57:56.751Z,96905.08
2023-04-01T09:01:21.305Z,96907.15
2023-04-01T09:04:18.664Z,96907.69
2023-04-01T09:07:24.108Z,96903.60
2023-04-01T09:10:57.195Z,96904.44
2023-04-01T09:14:36.351Z,96905.88
2023-04-01T09:17:25.800Z,96904.75
2023-04-01T09:20:43.870Z,96904.63
2023-04-01T09:23:47.170Z,96899.58
2023-04-01T09:26:37.578Z,96898.52
2023-04-01T09:29:45.648Z,96892.39
2023-04-01T09:33:11.727Z,96890.94
2023-04-01T09:36:29.551Z,96894.73
2023-04-01T09:39:35.645Z,96897.64
2023-04-01T09:43:03.977Z,96902.04
2023-04-01T09:45:44.293Z,96908.33
2023-04-01T09:48:51.959Z,96905.50
2023-04-01T09:52:03.065Z,96906.03
2023-04-01T09:54:54.456Z,96910.40
2023-04-01T09:57:43.204Z,96913.02
2023-04-01T10:01:10.510Z,96914.91
2023-04-01T10:04:28.406Z,96917.00
2023-04-01T10:07:50.532Z,96915.52
2023-04-01T10:10:41.055Z,96920.17
2023-04-01T10:13:24.080Z,96920.77
2023-04-01T10:16:33.229Z,96922.73
2023-04-01T10:19:41.739Z,96916.55
2023-04-01T10:22:54.197Z,96925.30
2023-04-01T10:26:32.313Z,96922.09
2023-04-01T10:29:58.527Z,96922.95
2023-04-01T10:33:35.145Z,96922.90
2023-04-01T10:36:50.592Z,96922.67
2023-04-01T10:40:16.253Z,96923.85
2023-04-01T10:43:46.468Z,96923.52
2023-04-01T10:46:37.909Z,96928.44
2023-04-01T10:49:32.241Z,96929.04
2023-04-01T10:53:02.369Z,96930.02
2023-04-01T10:56:57.423Z,96933.23
2023-04-01T11:00:45.351Z,96934.23
2023-04-01T11:03:46.218Z,96935.69
2023-04-01T11:06:39.986Z,96938.35
2023-04-01T11:09:44.440Z,96942.39
2023-04-01T11:13:09.364Z,96945.31
2023-04-01T11:16:39.119Z,96945.97
2023-04-01T11:20:12.788Z,96940.58
2023-04-01T11:24:02.245Z,96934.23
2023-04-01T11:27:18.298Z,96924.61
2023-04-01T11:30:43.552Z,96931.29
2023-04-01T11:33:32.896Z,96929.78
2023-04-01T11:37:04.891Z,96920.92
2023-04-01T11:39:59.426Z,96918.05
2023-04-01T11:43:34.474Z,96909.19
2023-04-01T11:46:43.591Z,96901.82
2023-04-01T11:50:09.650Z,96893.56
2023-04-01T11:53:48.276Z,96888.59
2023-04-01T11:56:25.659Z,96886.05
2023-04-01T11:59:16.088Z,96886.02
2023-04-01T12:02:00.000Z,96889.09
2023-04-01T12:05:05.551Z,96886.27
2023-04-01T12:08:31.295Z,96883.30
2023-04-01T12:12:10.040Z,96891.83
2023-04-01T12:15:01.533Z,96888.91
2023-04-01T12:17:55.512Z,96895.58
2023-04-01T12:20:28.212Z,96902.42
2023-04-01T12:23:48.994Z,96898.45
2023-04-01T12:26:38.579Z,96896.23
2023-04-01T12:29:16.198Z,96889.48
2023-04-01T12:32:26.219Z,96894.36
2023-04-01T12:35:11.212Z,96900.05
2023-04-01T12:38:09.126Z,96903.16
2023-04-01T12:41:19.599Z,96903.83
2023-04-01T12:44:28.923Z,96910.45
2023-04-01T12:47:25.352Z,96912.04
2023-04-01T12:50:07.911Z,96913.29
2023-04-01T12:52:57.107Z,96908.85
2023-04-01T12:55:42.475Z,96910.61
2023-04-01T12:58:55.637Z,96913.73
2023-04-01T13:02:15.900Z,96910.54
2023-04-01T13:05:16.497Z,96913.03
2023-04-01T13:08:23.466Z,96917.67
2023-04-01T13:11:41.079Z,96917.56
2023-04-01T13:15:19.109Z,96920.65
2023-04-01T13:18:32.002Z,96925.70
2023-04-01T13:21:22.975Z,96922.60
2023-04-01T13:24:48.330Z,96926.39
2023-04-01T13:27:41.849Z,96924.29
2023-04-01T13:30:24.317Z,96921.49
2023-04-01T13:33:12.538Z,96923.97
2023-04-01T13:36:35.602Z,96922.26
2023-04-01T13:39:38.346Z,96921.00
2023-04-01T13:43:03.905Z,96914.49
2023-04-01T13:45:59.128Z,96920.17
2023-04-01T13:48:44.108Z,96919.52
2023-04-01T13:51:55.893Z,96916.44
2023-04-01T13:55:01.967Z,96916.77
2023-04-01T13:57:49.803Z,96918.47
2023-04-01T14:00:43.842Z,96918.65
2023-04-01T14:03:40.448Z,96919.98
2023-04-01T14:06:34.749Z,96917.73
2023-04-01T14:09:20.255Z,96914.86
2023-04-01T14:12:25.115Z,96912.55
2023-04-01T14:15:22.413Z,96911.02
2023-04-01T14:18:00.921Z,96904.85
2023-04-01T14:21:18.464Z,96909.19
2023-04-01T14:24:21.288Z,96909.33
2023-04-01T14:27:21.693Z,96908.48
2023-04-01T14:30:09.127Z,96912.55
2023-04-01T14:33:44.340Z,96910.54
2023-04-01T14:36:46.986Z,96912.66
2023-04-01T14:40:14.359Z,96911.59
2023-04-01T14:43:53.926Z,96913.70
2023-04-01T14:46:45.955Z,96914.05
2023-04-01T14:49:41.001Z,96909.52
2023-04-01T14:52:17.435Z,96907.69
2023-04-01T14:55:40.356Z,96910.81
2023-04-01T14:58:34.843Z,96906.98
2023-04-01T15:01:43.590Z,96906.20
2023-04-01T15:04:53.668Z,96905.43
2023-04-01T15:07:39.928Z,96907.32
2023-04-01T15:11:23.863Z,96907.67
2023-04-01T15:14:28.068Z,96909.54
2023-04-01T15:17:11.028Z,96911.86
2023-04-01T15:20:11.361Z,96912.05
2023-04-01T15:23:41.190Z,96911.63
2023-04-01T15:27:13.862Z,96911.15
2023-04-01T15:30:08.474Z,96910.95
2023-04-01T15:33:25.604Z,96908.99
2023-04-01T15:36:48.870Z,96913.61
2023-04-01T15:40:20.243Z,96912.98
2023-04-01T15:43:54.513Z,96917.27
2023-04-01T15:46:49.021Z,96922.91
2023-04-01T15:50:16.261Z,96925.09
2023-04-01T15:53:25.328Z,96928.65
2023-04-01T15:56:45.837Z,96934.29
2023-04-01T16:00:08.685Z,96936.38
2023-04-01T16:02:54.519Z,96941.42
2023-04-01T16:06:11.601Z,96941.19
2023-04-01T16:09:14.312Z,96946.92
2023-04-01T16:12:24.522Z,96953.80
2023-04-01T16:15:25.574Z,96958.54
2023-04-01T16:18:33.530Z,96963.65
2023-04-01T16:21:45.936Z,96964.29
2023-04-01T16:24:46.666Z,96972.95
2023-04-01T16:27:19.536Z,96979.70
2023-04-01T16:29:49.558Z,96985.07
2023-04-01T16:32:41.278Z,96985.67
2023-04-01T16:35:59.790Z,96989.97
2023-04-01T16:38:57.164Z,96991.64
2023-04-01T16:41:32.880Z,96992.75
2023-04-01T16:44:12.271Z,96997.31
2023-04-01T16:47:13.581Z,96998.02
2023-04-01T16:49:55.054Z,97000.37
2023-04-01T16:53:06.852Z,97003.48
2023-04-01T16:56:06.056Z,97007.73
2023-04-01T16:59:03.332Z,97012.74
2023-04-01T17:02:14.735Z,97014.02
2023-04-01T17:04:53.427Z,97024.20
2023-04-01T17:07:47.816Z,97021.21
2023-04-01T17:10:45.902Z,97022.89
2023-04-01T17:13:36.690Z,97027.20
2023-04-01T17:16:27.562Z,97033.48
2023-04-01T17:19:25.048Z,97039.42
2023-04-01T17:22:40.748Z,97039.80
2023-04-01T17:25:52.832Z,97040.36
2023-04-01T17:28:51.279Z,97045.86
2023-04-01T17:31:41.633Z,97044.16
2023-04-01T17:34:27.234Z,97042.61
2023-04-01T17:37:37.192Z,97050.35
2023-04-01T17:40:52.500Z,97051.71
2023-04-01T17:44:04.775Z,97056.97
2023-04-01T17:47:23.358Z,97061.64
2023-04-01T17:50:54.879Z,97065.61
2023-04-01T17:54:06.955Z,97067.85
2023-04-01T17:57:00.962Z,97077.67
2023-04-01T18:00:07.417Z,97080.55
2023-04-01T18:03:15.121Z,97084.86
2023-04-01T18:06:26.559Z,97081.76
2023-04-01T18:09:55.458Z,97084.58
2023-04-01T18:13:16.997Z,97086.84
2023-04-01T18:16:54.944Z,97091.34
2023-04-01T18:19:49.095Z,97088.26
2023-04-01T18:23:03.668Z,97094.51
2023-04-01T18:25:49.869Z,97098.33
2023-04-01T18:29:13.278Z,97095.67
2023-04-01T18:31:48.079Z,97097.64
2023-04-01T18:34:55.257Z,97097.65
2023-04-01T18:37:52.552Z,97094.92
2023-04-01T18:40:53.399Z,97095.90
2023-04-01T18:44:30.756Z,97101.37
2023-04-01T18:47:18.335Z,97106.32
2023-04-01T18:50:01.467Z,97107.52
2023-04-01T18:52:54.062Z,97107.63
2023-04-01T18:55:44.192Z,97111.52
2023-04-01T18:59:12.343Z,97117.66
2023-04-01T19:02:24.049Z,97113.96
2023-04-01T19:05:24.869Z,97113.59
2023-04-01T19:08:01.122Z,97119.45
2023-04-01T19:10:34.965Z,97124.89
2023-04-01T19:13:26.476Z,97123.34
2023-04-01T19:16:39.284Z,97130.57
2023-04-01T19:19:47.239Z,97138.31
2023-04-01T19:22:47.944Z,97134.66
2023-04-01T19:25:53.203Z,97134.38
2023-04-01T19:29:11.807Z,97137.14
2023-04-01T19:32:22.637Z,97143.11
2023-04-01T19:35:14.651Z,97145.30
2023-04-01T19:38:03.065Z,97147.16
2023-04-01T19:40:36.077Z,97152.45
2023-04-01T19:43:22.244Z,97154.09
2023-04-01T19:47:15.354Z,97160.66
2023-04-01T19:50:18.195Z,97155.18
2023-04-01T19:53:02.013Z,97156.02
2023-04-01T19:56:03.162Z,97157.41
2023-04-01T19:59:39.333Z,97159.95
2023-04-01T20:03:02.539Z,97163.17
2023-04-01T20:06:56.739Z,97168.71
2023-04-01T20:10:27.113Z,97168.91
2023-04-01T20:13:47.658Z,97167.77
2023-04-01T20:16:24.321Z,97164.98
2023-04-01T20:20:15.525Z,97169.20
2023-04-01T20:23:46.219Z,97176.46
2023-04-01T20:27:10.535Z,97174.76
2023-04-01T20:30:39.301Z,97174.73
2023-04-01T20:34:06.763Z,97176.52
2023-04-01T20:37:33.532Z,97177.29
2023-04-01T20:40:53.394Z,97178.38
2023-04-01T20:44:51.164Z,97180.80
2023-04-01T20:48:43.738Z,97182.94
2023-04-01T20:51:55.411Z,97192.84
2023-04-01T20:56:06.690Z,97189.84
2023-04-01T20:59:25.029Z,97191.34
2023-04-01T21:02:57.720Z,97193.77
2023-04-01T21:06:36.003Z,97189.03
2023-04-01T21:09:44.525Z,97188.31
2023-04-01T21:13:32.217Z,97187.77
2023-04-01T21:17:01.732Z,97191.64
2023-04-01T21:20:37.198Z,97197.44
2023-04-01T21:23:59.258Z,97199.95
2023-04-01T21:27:48.173Z,97206.01
2023-04-01T21:31:44.395Z,97200.11
2023-04-01T21:35:30.927Z,97201.95
2023-04-01T21:39:06.357Z,97200.69
2023-04-01T21:42:49.568Z,97204.44
2023-04-01T21:46:57.939Z,97202.91
2023-04-01T21:51:10.135Z,97207.62
2023-04-01T21:54:57.959Z,97207.95
2023-04-01T21:58:58.399Z,97209.08
2023-04-01T22:02:40.673Z,97215.05
2023-04-01T22:06:25.473Z,97214.06
2023-04-01T22:10:03.024Z,97224.15
2023-04-01T22:13:37.989Z,97224.96
2023-04-01T22:17:09.090Z,97222.98
2023-04-01T22:21:31.836Z,97226.36
2023-04-01T22:25:07.397Z,97228.38
2023-04-01T22:28:56.942Z,97235.02
2023-04-01T22:33:14.094Z,97234.75
2023-04-01T22:36:16.892Z,97231.14
2023-04-01T22:39:22.742Z,97235.86
2023-04-01T22:43:14.834Z,97236.41
2023-04-01T22:47:32.031Z,97241.52
2023-04-01T22:51:19.142Z,97243.15
2023-04-01T22:55:39.945Z,97240.54
2023-04-01T22:59:44.446Z,97245.07
2023-04-01T23:03:48.597Z,97245.00
2023-04-01T23:08:01.391Z,97246.29
2023-04-01T23:12:09.599Z,97246.64
2023-04-01T23:16:17.897Z,97246.46
2023-04-01T23:20:11.968Z,97246.55
2023-04-01T23:24:34.552Z,97245.23
2023-04-01T23:28:32.495Z,97246.29
2023-04-01T23:32:40.637Z,97248.38
2023-04-01T23:36:51.752Z,97245.74
2023-04-01T23:41:00.320Z,97247.91
2023-04-01T23:45:03.861Z,97252.38
2023-04-01T23:49:14.940Z,97260.10
2023-04-01T23:53:31.111Z,97261.40
2023-04-01T23:57:36.457Z,97255.31
